CheckWX is a tool to help pilots better visualize weather data.  It is not intended as a substitute for an official pre-flight weather briefing.

03:42:44 UTC

KVQQ TAF
Cecil Airport
Jacksonville, Florida, USA
KVQQ 172320Z 1800/1824 08004KT P6SM SCT120 FM181300 05007KT P6SM BKN060 FM181700 07012G18KT P6SM VCSH BKN025

Sep-18@
00:00 UTC

Sep-18 @ 00:00 UTC

Sep-18@
13:00 UTC

Sep-18 @ 13:00 UTC

KVQQ 172320Z 1800/1824 08004KT P6SM SCT120
Wind
  • 080° at 4 KTS
Cloud Levels
  • Scattered at 12,000' AGL

Sep-18@
13:00 UTC

Sep-18 @ 13:00 UTC

Sep-18@
17:00 UTC

Sep-18 @ 17:00 UTC

FM181300 05007KT P6SM BKN060

From

From Standard forecast or significant change

Wind
  • 050° at 7 KTS
Cloud Levels
  • Broken at 6,000' AGL

Sep-18@
17:00 UTC

Sep-18 @ 17:00 UTC

Sep-19@
00:00 UTC

Sep-19 @ 00:00 UTC

FM181700 07012G18KT P6SM VCSH BKN025

From

From Standard forecast or significant change

Wind
  • 070° at 12 KTS
  • {Gusting to 18 KTS
Cloud Levels
  • Broken at 2,500' AGL